Time;durP1;ratioP1;P1;durP2;ratioP2;P2;SDS_P1;SDS_P2;PMS_P1;PMS_P2;Temp;Humidity;BMP_temperature;BMP_pressure;BME280_temperature;BME280_humidity;BME280_pressure;Samples;Min_cycle;Max_cycle;Signal;HPM_P1;HPM_P2
2022/12/12 00:01:39;;;;;;;;;;;;;;;;;;6263540;22;19929;-85
2022/12/12 00:04:06;;;;;;;;;;;;;;;;;;6320896;22;19919;-85
2022/12/12 00:06:32;;;;;;;;;;;;;;;;;;6322181;22;19946;-85
2022/12/12 00:08:59;;;;;;;;;;;;;;;;;;6324591;22;19923;-85
2022/12/12 00:11:40;;;;;;;;;;;;;;;;;;6264014;22;19919;-85
2022/12/12 00:14:07;;;;;;;;;;;;;;;;;;6262844;22;20370;-85
2022/12/12 00:16:36;;;;;;;;;;;;;;;;;;6288031;22;19925;-85
2022/12/12 00:19:06;;;;;;;;;;;;;;;;;;6292535;22;20017;-85
2022/12/12 00:21:35;;;;;;;;;;;;;;;;;;6290851;22;20252;-85
2022/12/12 00:24:01;;;;;;;;;;;;;;;;;;6288504;22;19941;-85
2022/12/12 00:26:28;;;;;;;;;;;;;;;;;;6289041;22;19919;-85
2022/12/12 00:28:55;;;;;;;;;;;;;;;;;;6234655;22;20188;-85
2022/12/12 00:31:22;;;;;;;;;;;;;;;;;;6286239;22;20301;-85
2022/12/12 00:33:53;;;;;;;;;;;;;;;;;;6259872;22;19919;-85
2022/12/12 00:36:22;;;;;;;;;;;;;;;;;;6285913;22;19919;-85
2022/12/12 00:38:49;;;;;;;;;;;;;;;;;;6284527;22;19919;-84
2022/12/12 00:41:16;;;;;;;;;;;;;;;;;;6261545;22;19919;-84
2022/12/12 00:43:43;;;;;;;;;;;;;;;;;;6322836;22;19996;-85
2022/12/12 00:46:20;;;;;;;;;;;;;;;;;;6355648;22;20347;-85
2022/12/12 00:48:46;;;;;;;;;;;;;;;;;;6297488;22;20405;-85
2022/12/12 00:51:12;;;;;;;;;;;;;;;;;;6299394;22;19918;-85
2022/12/12 00:53:39;;;;;;;;;;;;;;;;;;6298101;22;19918;-85
2022/12/12 00:56:05;;;;;;;;;;;;;;;;;;6325054;22;19998;-85
2022/12/12 00:58:34;;;;;;;;;;;;;;;;;;6353485;22;19918;-85
2022/12/12 01:01:07;;;;;;;;;;;;;;;;;;6299054;22;20169;-85
2022/12/12 01:03:36;;;;;;;;;;;;;;;;;;6326756;22;19914;-85
2022/12/12 01:06:03;;;;;;;;;;;;;;;;;;6325843;22;20358;-85
2022/12/12 01:08:30;;;;;;;;;;;;;;;;;;6326942;22;19983;-85
2022/12/12 01:10:56;;;;;;;;;;;;;;;;;;6298577;22;19925;-85
2022/12/12 01:13:22;;;;;;;;;;;;;;;;;;6323498;22;19918;-85
2022/12/12 01:15:49;;;;;;;;;;;;;;;;;;6325917;22;19923;-85
2022/12/12 01:18:28;;;;;;;;;;;;;;;;;;6303471;22;20035;-85
2022/12/12 01:20:55;;;;;;;;;;;;;;;;;;6297568;22;19918;-85
2022/12/12 01:23:31;;;;;;;;;;;;;;;;;;6353385;22;19944;-85
2022/12/12 01:25:57;;;;;;;;;;;;;;;;;;6320069;22;19925;-85
2022/12/12 01:28:24;;;;;;;;;;;;;;;;;;6328059;22;19922;-85
2022/12/12 01:30:50;;;;;;;;;;;;;;;;;;6350093;22;19918;-85
2022/12/12 01:33:18;;;;;;;;;;;;;;;;;;6355180;22;20380;-85
2022/12/12 01:35:44;;;;;;;;;;;;;;;;;;6296733;22;20399;-85
2022/12/12 01:38:10;;;;;;;;;;;;;;;;;;6326310;22;19922;-85
2022/12/12 01:40:37;;;;;;;;;;;;;;;;;;6325658;22;19950;-85
2022/12/12 01:43:04;;;;;;;;;;;;;;;;;;6353738;22;19917;-85
2022/12/12 01:45:36;;;;;;;;;;;;;;;;;;6355395;22;19918;-85
2022/12/12 01:48:11;;;;;;;;;;;;;;;;;;6351103;22;19926;-85
2022/12/12 01:50:37;;;;;;;;;;;;;;;;;;6324029;22;20361;-85
2022/12/12 01:53:04;;;;;;;;;;;;;;;;;;6328285;22;19991;-85
2022/12/12 01:55:39;;;;;;;;;;;;;;;;;;6352043;22;19989;-85
2022/12/12 01:58:20;;;;;;;;;;;;;;;;;;6257724;22;20401;-85
2022/12/12 02:00:48;;;;;;;;;;;;;;;;;;6204108;22;20371;-85
2022/12/12 02:03:21;;;;;;;;;;;;;;;;;;6230667;22;20761;-85
2022/12/12 02:05:49;;;;;;;;;;;;;;;;;;6256515;22;19919;-85
2022/12/12 02:08:16;;;;;;;;;;;;;;;;;;6203992;22;19951;-85
2022/12/12 02:10:44;;;;;;;;;;;;;;;;;;6203460;22;19955;-85
2022/12/12 02:13:10;;;;;;;;;;;;;;;;;;6206393;22;20403;-85
2022/12/12 02:15:56;;;;;;;;;;;;;;;;;;6231984;22;19961;-85
2022/12/12 02:18:26;;;;;;;;;;;;;;;;;;6256656;22;19915;-85
2022/12/12 02:20:54;;;;;;;;;;;;;;;;;;6205910;22;20383;-85
2022/12/12 02:23:20;;;;;;;;;;;;;;;;;;6204076;22;20302;-85
2022/12/12 02:25:47;;;;;;;;;;;;;;;;;;6254200;22;19930;-86
2022/12/12 02:28:13;;;;;;;;;;;;;;;;;;6257888;22;20422;-85
2022/12/12 02:30:52;;;;;;;;;;;;;;;;;;6318047;22;19918;-85
2022/12/12 02:33:19;;;;;;;;;;;;;;;;;;6320210;22;19930;-85
2022/12/12 02:35:47;;;;;;;;;;;;;;;;;;6321328;22;19942;-85
2022/12/12 02:38:13;;;;;;;;;;;;;;;;;;6321020;22;20101;-85
2022/12/12 02:40:40;;;;;;;;;;;;;;;;;;6317283;22;20805;-85
2022/12/12 02:43:06;;;;;;;;;;;;;;;;;;6320469;22;19919;-86
2022/12/12 02:45:36;;;;;;;;;;;;;;;;;;6318605;22;20074;-85
2022/12/12 02:48:02;;;;;;;;;;;;;;;;;;6321062;22;19922;-85
2022/12/12 02:50:29;;;;;;;;;;;;;;;;;;6321295;22;19968;-85
2022/12/12 02:52:57;;;;;;;;;;;;;;;;;;6316955;22;19922;-85
2022/12/12 02:55:24;;;;;;;;;;;;;;;;;;6318791;22;20013;-85
2022/12/12 02:57:50;;;;;;;;;;;;;;;;;;6320623;22;20380;-85
2022/12/12 03:00:36;;;;;;;;;;;;;;;;;;6321266;22;19922;-85
2022/12/12 03:08:39;;;;;;;;;;;;;;;;;;6318714;22;19933;-85
2022/12/12 03:11:05;;;;;;;;;;;;;;;;;;6322809;22;19919;-84
2022/12/12 03:13:32;;;;;;;;;;;;;;;;;;6321918;22;19921;-85
2022/12/12 03:15:58;;;;;;;;;;;;;;;;;;6319569;22;19929;-85
2022/12/12 03:18:24;;;;;;;;;;;;;;;;;;6325315;22;19919;-85
2022/12/12 03:20:51;;;;;;;;;;;;;;;;;;6319958;22;19926;-85
2022/12/12 03:23:17;;;;;;;;;;;;;;;;;;6323972;22;19985;-85
2022/12/12 03:25:43;;;;;;;;;;;;;;;;;;6320976;22;19952;-85
2022/12/12 03:28:16;;;;;;;;;;;;;;;;;;6326488;22;19918;-85
2022/12/12 03:30:42;;;;;;;;;;;;;;;;;;6323266;22;19966;-85
2022/12/12 03:33:10;;;;;;;;;;;;;;;;;;6327726;22;19918;-85
2022/12/12 03:35:36;;;;;;;;;;;;;;;;;;6322981;22;19918;-85
2022/12/12 03:38:03;;;;;;;;;;;;;;;;;;6325441;22;20247;-85
2022/12/12 03:40:31;;;;;;;;;;;;;;;;;;6324525;22;20594;-85
2022/12/12 03:42:58;;;;;;;;;;;;;;;;;;6320358;22;19923;-85
2022/12/12 03:45:24;;;;;;;;;;;;;;;;;;6295159;22;19918;-85
2022/12/12 03:47:53;;;;;;;;;;;;;;;;;;6256237;22;20002;-85
2022/12/12 03:50:24;;;;;;;;;;;;;;;;;;6208868;22;19966;-85
2022/12/12 03:52:54;;;;;;;;;;;;;;;;;;6258431;22;19919;-85
2022/12/12 03:55:19;;;;;;;;;;;;;;;;;;6262451;22;19919;-85
2022/12/12 03:57:52;;;;;;;;;;;;;;;;;;6255998;22;19966;-84
2022/12/12 04:00:19;;;;;;;;;;;;;;;;;;6258908;22;20485;-84
2022/12/12 04:02:50;;;;;;;;;;;;;;;;;;6255833;22;19915;-84
2022/12/12 04:05:16;;;;;;;;;;;;;;;;;;6238170;22;19931;-84
2022/12/12 04:07:42;;;;;;;;;;;;;;;;;;6208593;22;20299;-84
2022/12/12 04:13:02;;;;;;;;;;;;;;;;;;6257314;22;19946;-84
2022/12/12 04:15:47;;;;;;;;;;;;;;;;;;6233373;22;19981;-85
2022/12/12 04:18:23;;;;;;;;;;;;;;;;;;6254402;22;19941;-85
2022/12/12 04:23:37;;;;;;;;;;;;;;;;;;6293459;22;19918;-85
2022/12/12 04:28:49;;;;;;;;;;;;;;;;;;6294960;22;19933;-85
2022/12/12 04:31:15;;;;;;;;;;;;;;;;;;6272850;22;19918;-85
2022/12/12 04:33:42;;;;;;;;;;;;;;;;;;6267671;22;20332;-85
2022/12/12 04:36:09;;;;;;;;;;;;;;;;;;6271286;22;19929;-85
2022/12/12 04:38:36;;;;;;;;;;;;;;;;;;6270488;22;19967;-85
2022/12/12 04:41:03;;;;;;;;;;;;;;;;;;6273230;22;20010;-85
2022/12/12 04:43:34;;;;;;;;;;;;;;;;;;6270109;22;19918;-85
2022/12/12 04:46:00;;;;;;;;;;;;;;;;;;6257321;22;20411;-85
2022/12/12 04:48:27;;;;;;;;;;;;;;;;;;6260510;22;19962;-85
2022/12/12 04:50:55;;;;;;;;;;;;;;;;;;6255625;22;20360;-85
2022/12/12 04:53:20;;;;;;;;;;;;;;;;;;6257798;22;20228;-85
2022/12/12 04:55:48;;;;;;;;;;;;;;;;;;6230581;22;20273;-85
2022/12/12 04:58:17;;;;;;;;;;;;;;;;;;6258336;22;20411;-85
2022/12/12 05:00:43;;;;;;;;;;;;;;;;;;6252653;22;19957;-85
2022/12/12 05:03:10;;;;;;;;;;;;;;;;;;6229106;22;19923;-84
2022/12/12 05:05:37;;;;;;;;;;;;;;;;;;6226683;22;19916;-85
2022/12/12 05:08:04;;;;;;;;;;;;;;;;;;6231858;22;19927;-85
2022/12/12 05:10:31;;;;;;;;;;;;;;;;;;6259256;22;19990;-85
2022/12/12 05:12:59;;;;;;;;;;;;;;;;;;6230458;22;19974;-85
2022/12/12 05:15:26;;;;;;;;;;;;;;;;;;6234453;22;19961;-85
2022/12/12 05:17:53;;;;;;;;;;;;;;;;;;6312566;22;19922;-85
2022/12/12 05:20:32;;;;;;;;;;;;;;;;;;6323182;22;20013;-85
2022/12/12 05:22:58;;;;;;;;;;;;;;;;;;6317980;22;19957;-85
2022/12/12 05:25:31;;;;;;;;;;;;;;;;;;6323684;22;19925;-85
2022/12/12 05:27:59;;;;;;;;;;;;;;;;;;6294531;22;19918;-85
2022/12/12 05:30:26;;;;;;;;;;;;;;;;;;6322762;22;19922;-84
2022/12/12 05:32:53;;;;;;;;;;;;;;;;;;6319918;22;19915;-85
2022/12/12 05:35:29;;;;;;;;;;;;;;;;;;6322284;22;19924;-85
2022/12/12 05:37:56;;;;;;;;;;;;;;;;;;6319584;22;19929;-85
2022/12/12 05:40:24;;;;;;;;;;;;;;;;;;6320701;22;19918;-84
2022/12/12 05:42:50;;;;;;;;;;;;;;;;;;6320013;22;20271;-85
2022/12/12 05:45:20;;;;;;;;;;;;;;;;;;6323746;22;19919;-85
2022/12/12 05:47:47;;;;;;;;;;;;;;;;;;6319791;22;19915;-85
2022/12/12 05:50:14;;;;;;;;;;;;;;;;;;6290605;22;20351;-85
2022/12/12 05:52:42;;;;;;;;;;;;;;;;;;6319911;22;19993;-85
2022/12/12 05:55:08;;;;;;;;;;;;;;;;;;6321001;22;19914;-85
2022/12/12 05:57:34;;;;;;;;;;;;;;;;;;6323602;22;19923;-85
2022/12/12 06:00:01;;;;;;;;;;;;;;;;;;6321429;22;19964;-85
2022/12/12 06:02:29;;;;;;;;;;;;;;;;;;6318662;22;20154;-85
2022/12/12 06:04:59;;;;;;;;;;;;;;;;;;6319358;22;19918;-85
2022/12/12 06:07:26;;;;;;;;;;;;;;;;;;6321124;22;19967;-85
2022/12/12 06:09:54;;;;;;;;;;;;;;;;;;6319929;22;19923;-85
2022/12/12 06:12:21;;;;;;;;;;;;;;;;;;6295316;22;19930;-85
2022/12/12 06:14:49;;;;;;;;;;;;;;;;;;6319125;22;19983;-85
2022/12/12 06:17:15;;;;;;;;;;;;;;;;;;6325731;22;19925;-85
2022/12/12 06:19:42;;;;;;;;;;;;;;;;;;6321017;22;19918;-85
2022/12/12 06:22:09;;;;;;;;;;;;;;;;;;6319077;22;19964;-84
2022/12/12 06:24:35;;;;;;;;;;;;;;;;;;6319661;22;19937;-85
2022/12/12 06:27:05;;;;;;;;;;;;;;;;;;6321981;22;19941;-85
2022/12/12 06:29:38;;;;;;;;;;;;;;;;;;6294713;22;19932;-85
2022/12/12 06:32:05;;;;;;;;;;;;;;;;;;6322598;22;20182;-85
2022/12/12 06:34:32;;;;;;;;;;;;;;;;;;6320961;22;20001;-85
2022/12/12 06:36:59;;;;;;;;;;;;;;;;;;6315648;22;19923;-85
2022/12/12 06:39:26;;;;;;;;;;;;;;;;;;6320133;22;19953;-85
2022/12/12 06:41:52;;;;;;;;;;;;;;;;;;6319194;22;20003;-85
2022/12/12 06:44:19;;;;;;;;;;;;;;;;;;6320339;22;20000;-85
2022/12/12 06:46:46;;;;;;;;;;;;;;;;;;6319467;22;19925;-85
2022/12/12 06:49:14;;;;;;;;;;;;;;;;;;6326786;22;20246;-85
2022/12/12 06:51:44;;;;;;;;;;;;;;;;;;6318392;22;20272;-85
2022/12/12 06:54:10;;;;;;;;;;;;;;;;;;6320649;22;19925;-84
2022/12/12 06:56:37;;;;;;;;;;;;;;;;;;6320389;22;19919;-85
2022/12/12 06:59:05;;;;;;;;;;;;;;;;;;6322580;22;19918;-85
2022/12/12 07:01:32;;;;;;;;;;;;;;;;;;6320336;22;19938;-84
2022/12/12 07:03:59;;;;;;;;;;;;;;;;;;6322039;22;19954;-84
2022/12/12 07:06:27;;;;;;;;;;;;;;;;;;6328196;22;19954;-85
2022/12/12 07:08:54;;;;;;;;;;;;;;;;;;6295798;22;19922;-84
2022/12/12 07:11:21;;;;;;;;;;;;;;;;;;6326328;22;19973;-85
2022/12/12 07:13:48;;;;;;;;;;;;;;;;;;6322837;22;20289;-85
2022/12/12 07:16:29;;;;;;;;;;;;;;;;;;6263167;22;20304;-85
2022/12/12 07:18:57;;;;;;;;;;;;;;;;;;6234968;22;19919;-85
2022/12/12 07:21:24;;;;;;;;;;;;;;;;;;6265098;22;19998;-85
2022/12/12 07:23:50;;;;;;;;;;;;;;;;;;6264010;22;19950;-85
2022/12/12 07:26:16;;;;;;;;;;;;;;;;;;6266096;22;20629;-85
2022/12/12 07:28:44;;;;;;;;;;;;;;;;;;6262212;22;19930;-84
2022/12/12 07:31:10;;;;;;;;;;;;;;;;;;6263151;22;19986;-85
2022/12/12 07:33:41;;;;;;;;;;;;;;;;;;6264163;22;19944;-85
2022/12/12 07:36:09;;;;;;;;;;;;;;;;;;6266251;22;19998;-85
2022/12/12 07:38:35;;;;;;;;;;;;;;;;;;6262877;22;19970;-86
2022/12/12 07:41:08;;;;;;;;;;;;;;;;;;6237703;22;19997;-84
2022/12/12 07:43:34;;;;;;;;;;;;;;;;;;6237273;22;19925;-85
2022/12/12 07:46:00;;;;;;;;;;;;;;;;;;6235804;22;19943;-85
2022/12/12 07:48:26;;;;;;;;;;;;;;;;;;6320745;22;19930;-85
2022/12/12 07:50:52;;;;;;;;;;;;;;;;;;6322789;22;19914;-85
2022/12/12 07:53:19;;;;;;;;;;;;;;;;;;6322700;22;19929;-86
2022/12/12 07:55:50;;;;;;;;;;;;;;;;;;6325077;22;19977;-85
2022/12/12 07:58:17;;;;;;;;;;;;;;;;;;6326079;22;19930;-86
2022/12/12 08:00:43;;;;;;;;;;;;;;;;;;6323670;22;19922;-85
2022/12/12 08:03:28;;;;;;;;;;;;;;;;;;6325901;22;19913;-85
2022/12/12 08:05:55;;;;;;;;;;;;;;;;;;6323209;22;19953;-85
2022/12/12 08:08:22;;;;;;;;;;;;;;;;;;6331494;22;20269;-85
2022/12/12 08:10:50;;;;;;;;;;;;;;;;;;6302335;22;19918;-85
2022/12/12 08:13:17;;;;;;;;;;;;;;;;;;6332439;22;19918;-85
2022/12/12 08:15:44;;;;;;;;;;;;;;;;;;6329225;22;19940;-85
2022/12/12 08:18:11;;;;;;;;;;;;;;;;;;6307109;22;19914;-85
2022/12/12 08:20:38;;;;;;;;;;;;;;;;;;6302206;22;20375;-85
2022/12/12 08:23:04;;;;;;;;;;;;;;;;;;6331474;22;20330;-85
2022/12/12 08:25:32;;;;;;;;;;;;;;;;;;6332245;22;19963;-85
2022/12/12 08:27:59;;;;;;;;;;;;;;;;;;6303668;22;19977;-84
2022/12/12 08:30:26;;;;;;;;;;;;;;;;;;6332555;22;19918;-85
2022/12/12 08:32:53;;;;;;;;;;;;;;;;;;6303128;22;19918;-84
2022/12/12 08:35:20;;;;;;;;;;;;;;;;;;6333060;22;19918;-85
2022/12/12 08:37:47;;;;;;;;;;;;;;;;;;6330306;22;20086;-85
2022/12/12 08:40:36;;;;;;;;;;;;;;;;;;6335610;22;19913;-85
2022/12/12 08:43:11;;;;;;;;;;;;;;;;;;6332393;22;19922;-85
2022/12/12 08:45:38;;;;;;;;;;;;;;;;;;6328801;22;19963;-85
2022/12/12 08:48:20;;;;;;;;;;;;;;;;;;6334555;22;19969;-85
2022/12/12 08:50:47;;;;;;;;;;;;;;;;;;6329252;22;19989;-85
2022/12/12 08:53:14;;;;;;;;;;;;;;;;;;6331377;22;19922;-84
2022/12/12 08:55:41;;;;;;;;;;;;;;;;;;6330865;22;19918;-84
2022/12/12 08:58:09;;;;;;;;;;;;;;;;;;6305996;22;20387;-84
2022/12/12 09:00:34;;;;;;;;;;;;;;;;;;6357846;22;20224;-85
2022/12/12 09:03:21;;;;;;;;;;;;;;;;;;6333831;22;19917;-85
2022/12/12 09:05:48;;;;;;;;;;;;;;;;;;6326947;22;19967;-85
2022/12/12 09:08:14;;;;;;;;;;;;;;;;;;6328010;22;19919;-85
2022/12/12 09:10:41;;;;;;;;;;;;;;;;;;6327320;22;20066;-85
2022/12/12 09:13:10;;;;;;;;;;;;;;;;;;6330155;22;20390;-85
2022/12/12 09:15:40;;;;;;;;;;;;;;;;;;6327226;22;20666;-85
2022/12/12 09:18:07;;;;;;;;;;;;;;;;;;6304381;22;19918;-84
2022/12/12 09:20:36;;;;;;;;;;;;;;;;;;6327986;22;20246;-84
2022/12/12 09:23:04;;;;;;;;;;;;;;;;;;6304275;22;19991;-85
2022/12/12 09:25:30;;;;;;;;;;;;;;;;;;6327540;22;19918;-85
2022/12/12 09:27:57;;;;;;;;;;;;;;;;;;6349256;22;19971;-85
2022/12/12 09:30:32;;;;;;;;;;;;;;;;;;6325373;22;20216;-85
2022/12/12 09:32:59;;;;;;;;;;;;;;;;;;6326153;22;20007;-84
2022/12/12 09:35:27;;;;;;;;;;;;;;;;;;6303856;22;19918;-85
2022/12/12 09:37:54;;;;;;;;;;;;;;;;;;6327050;22;20022;-85
2022/12/12 09:40:20;;;;;;;;;;;;;;;;;;6325719;22;19977;-85
2022/12/12 09:42:47;;;;;;;;;;;;;;;;;;6323530;22;19914;-85
2022/12/12 09:45:14;;;;;;;;;;;;;;;;;;6330163;22;19959;-85
2022/12/12 09:47:41;;;;;;;;;;;;;;;;;;6327605;22;19938;-85
2022/12/12 09:50:09;;;;;;;;;;;;;;;;;;6304826;22;19990;-85
2022/12/12 09:52:36;;;;;;;;;;;;;;;;;;6301373;22;19945;-85
2022/12/12 09:55:17;;;;;;;;;;;;;;;;;;6239366;22;20522;-84
2022/12/12 09:57:44;;;;;;;;;;;;;;;;;;6207605;22;19919;-85
2022/12/12 10:00:11;;;;;;;;;;;;;;;;;;6261403;22;19929;-85
2022/12/12 10:02:47;;;;;;;;;;;;;;;;;;6257603;22;19919;-85
2022/12/12 10:05:14;;;;;;;;;;;;;;;;;;6235636;22;20066;-85
2022/12/12 10:07:56;;;;;;;;;;;;;;;;;;6255372;22;20289;-85
2022/12/12 10:10:22;;;;;;;;;;;;;;;;;;6233853;22;19965;-85
2022/12/12 10:12:49;;;;;;;;;;;;;;;;;;6232631;22;19919;-85
2022/12/12 10:15:36;;;;;;;;;;;;;;;;;;6239651;22;20303;-85
2022/12/12 10:18:02;;;;;;;;;;;;;;;;;;6208521;22;19920;-85
2022/12/12 10:20:29;;;;;;;;;;;;;;;;;;6233732;22;20280;-85
2022/12/12 10:22:57;;;;;;;;;;;;;;;;;;6230525;22;19919;-85
2022/12/12 10:25:25;;;;;;;;;;;;;;;;;;6220076;22;19919;-85
2022/12/12 10:27:51;;;;;;;;;;;;;;;;;;6325964;22;20331;-85
2022/12/12 10:30:17;;;;;;;;;;;;;;;;;;6328997;22;19924;-85
2022/12/12 10:32:43;;;;;;;;;;;;;;;;;;6325439;22;19915;-85
2022/12/12 10:35:16;;;;;;;;;;;;;;;;;;6327202;22;20338;-85
2022/12/12 10:37:43;;;;;;;;;;;;;;;;;;6325328;22;19914;-85
2022/12/12 10:40:11;;;;;;;;;;;;;;;;;;6327388;22;19922;-85
2022/12/12 10:42:38;;;;;;;;;;;;;;;;;;6327771;22;20331;-85
2022/12/12 10:45:18;;;;;;;;;;;;;;;;;;6328654;22;20675;-85
2022/12/12 10:47:46;;;;;;;;;;;;;;;;;;6325745;22;19950;-85
2022/12/12 10:50:12;;;;;;;;;;;;;;;;;;6326593;22;20309;-85
2022/12/12 10:52:39;;;;;;;;;;;;;;;;;;6323377;22;19961;-85
2022/12/12 10:55:06;;;;;;;;;;;;;;;;;;6326908;22;19940;-85
2022/12/12 10:57:34;;;;;;;;;;;;;;;;;;6329807;22;19923;-85
2022/12/12 11:00:00;;;;;;;;;;;;;;;;;;6325746;22;19918;-85
2022/12/12 11:02:27;;;;;;;;;;;;;;;;;;6322033;22;20247;-85
2022/12/12 11:04:54;;;;;;;;;;;;;;;;;;6323465;22;19918;-85
2022/12/12 11:07:21;;;;;;;;;;;;;;;;;;6324189;22;20047;-85
2022/12/12 11:09:57;;;;;;;;;;;;;;;;;;6347245;22;19933;-85
2022/12/12 11:12:23;;;;;;;;;;;;;;;;;;6332528;22;19918;-86
2022/12/12 11:14:49;;;;;;;;;;;;;;;;;;6303747;22;19925;-86
2022/12/12 11:17:16;;;;;;;;;;;;;;;;;;6331066;22;19918;-85
2022/12/12 11:19:42;;;;;;;;;;;;;;;;;;6305083;22;19920;-86
2022/12/12 11:22:09;;;;;;;;;;;;;;;;;;6305334;22;19985;-86
2022/12/12 11:24:36;;;;;;;;;;;;;;;;;;6304487;22;19927;-86
2022/12/12 11:27:04;;;;;;;;;;;;;;;;;;6331068;22;19925;-86
2022/12/12 11:29:30;;;;;;;;;;;;;;;;;;6302564;22;20001;-86
2022/12/12 11:31:57;;;;;;;;;;;;;;;;;;6327727;22;20349;-85
2022/12/12 11:34:24;;;;;;;;;;;;;;;;;;6359601;22;19922;-85
2022/12/12 11:36:51;;;;;;;;;;;;;;;;;;6302233;22;19918;-85
2022/12/12 11:39:18;;;;;;;;;;;;;;;;;;6303306;22;19926;-86
2022/12/12 11:41:46;;;;;;;;;;;;;;;;;;6300031;22;19915;-85
2022/12/12 11:44:11;;;;;;;;;;;;;;;;;;6301539;22;20251;-86
2022/12/12 11:46:39;;;;;;;;;;;;;;;;;;6297928;22;19918;-86
2022/12/12 11:49:06;;;;;;;;;;;;;;;;;;6301196;22;19918;-86
2022/12/12 11:51:34;;;;;;;;;;;;;;;;;;6301769;22;19925;-86
2022/12/12 11:54:00;;;;;;;;;;;;;;;;;;6327111;22;19964;-85
2022/12/12 11:56:26;;;;;;;;;;;;;;;;;;6330193;22;19918;-86
2022/12/12 11:58:53;;;;;;;;;;;;;;;;;;6305065;22;20708;-86
2022/12/12 12:01:19;;;;;;;;;;;;;;;;;;6332126;22;19918;-86
2022/12/12 12:03:46;;;;;;;;;;;;;;;;;;6296403;22;19921;-86
2022/12/12 12:06:13;;;;;;;;;;;;;;;;;;6300390;22;20255;-86
2022/12/12 12:08:39;;;;;;;;;;;;;;;;;;6329574;22;19929;-86
2022/12/12 12:11:06;;;;;;;;;;;;;;;;;;6359546;22;19918;-86
2022/12/12 12:13:33;;;;;;;;;;;;;;;;;;6307171;22;20255;-86
2022/12/12 12:15:59;;;;;;;;;;;;;;;;;;6303035;22;19985;-86
2022/12/12 12:18:27;;;;;;;;;;;;;;;;;;6332956;22;19945;-86
2022/12/12 12:20:54;;;;;;;;;;;;;;;;;;6329419;22;20380;-86
2022/12/12 12:23:22;;;;;;;;;;;;;;;;;;6304308;22;19922;-86
2022/12/12 12:26:03;;;;;;;;;;;;;;;;;;6261593;22;19987;-86
2022/12/12 12:28:30;;;;;;;;;;;;;;;;;;6236755;22;20348;-86
2022/12/12 12:30:56;;;;;;;;;;;;;;;;;;6233744;22;19923;-86
2022/12/12 12:33:24;;;;;;;;;;;;;;;;;;6263180;22;19923;-86
2022/12/12 12:35:51;;;;;;;;;;;;;;;;;;6234083;22;19922;-86
2022/12/12 12:38:18;;;;;;;;;;;;;;;;;;6198424;22;20529;-86
2022/12/12 12:40:46;;;;;;;;;;;;;;;;;;6233235;22;19966;-86
2022/12/12 12:43:13;;;;;;;;;;;;;;;;;;6212117;22;19923;-85
2022/12/12 12:45:39;;;;;;;;;;;;;;;;;;6233162;22;19966;-86
2022/12/12 12:48:06;;;;;;;;;;;;;;;;;;6238510;22;20027;-86
2022/12/12 12:50:33;;;;;;;;;;;;;;;;;;6208514;22;19923;-86
2022/12/12 12:53:04;;;;;;;;;;;;;;;;;;6260606;22;19916;-86
2022/12/12 12:55:31;;;;;;;;;;;;;;;;;;6212624;22;20335;-86
2022/12/12 12:58:11;;;;;;;;;;;;;;;;;;6357717;22;19925;-86
2022/12/12 13:00:38;;;;;;;;;;;;;;;;;;6330333;22;19945;-86
2022/12/12 13:03:06;;;;;;;;;;;;;;;;;;6307060;22;19925;-86
2022/12/12 13:05:33;;;;;;;;;;;;;;;;;;6357865;22;19923;-85
2022/12/12 13:08:01;;;;;;;;;;;;;;;;;;6329454;22;19918;-86
2022/12/12 13:10:27;;;;;;;;;;;;;;;;;;6301067;22;19923;-86
2022/12/12 13:13:00;;;;;;;;;;;;;;;;;;6325569;22;19967;-86
2022/12/12 13:15:26;;;;;;;;;;;;;;;;;;6326861;22;19918;-86
2022/12/12 13:17:53;;;;;;;;;;;;;;;;;;6323562;22;19925;-86
2022/12/12 13:20:20;;;;;;;;;;;;;;;;;;6326561;22;19983;-86
2022/12/12 13:23:08;;;;;;;;;;;;;;;;;;6326888;22;20235;-86
2022/12/12 13:25:36;;;;;;;;;;;;;;;;;;6324584;22;19922;-86
2022/12/12 13:28:03;;;;;;;;;;;;;;;;;;6324489;22;19919;-86
2022/12/12 13:30:31;;;;;;;;;;;;;;;;;;6324133;22;19925;-86
2022/12/12 13:32:58;;;;;;;;;;;;;;;;;;6323227;22;20328;-86
2022/12/12 13:35:25;;;;;;;;;;;;;;;;;;6323652;22;19918;-86
2022/12/12 13:37:53;;;;;;;;;;;;;;;;;;6323645;22;20390;-86
2022/12/12 13:40:40;;;;;;;;;;;;;;;;;;6235427;22;20240;-86
2022/12/12 13:43:06;;;;;;;;;;;;;;;;;;6261427;22;19925;-86
2022/12/12 13:45:36;;;;;;;;;;;;;;;;;;6236996;22;19964;-86
2022/12/12 13:48:03;;;;;;;;;;;;;;;;;;6263562;22;19919;-86
2022/12/12 13:50:31;;;;;;;;;;;;;;;;;;6263401;22;19978;-86
2022/12/12 13:53:00;;;;;;;;;;;;;;;;;;6261033;22;19927;-86
2022/12/12 13:55:26;;;;;;;;;;;;;;;;;;6261693;22;19918;-86
2022/12/12 13:58:09;;;;;;;;;;;;;;;;;;6236909;22;19920;-86
2022/12/12 14:00:37;;;;;;;;;;;;;;;;;;6234423;22;19919;-86
2022/12/12 14:03:04;;;;;;;;;;;;;;;;;;6257020;22;20366;-85
2022/12/12 14:05:31;;;;;;;;;;;;;;;;;;6263207;22;20824;-86
2022/12/12 14:07:58;;;;;;;;;;;;;;;;;;6258594;22;20721;-86
2022/12/12 14:10:24;;;;;;;;;;;;;;;;;;6260035;22;20288;-86
2022/12/12 14:12:55;;;;;;;;;;;;;;;;;;6236579;22;19919;-86
2022/12/12 14:15:22;;;;;;;;;;;;;;;;;;6237652;22;19923;-86
2022/12/12 14:17:50;;;;;;;;;;;;;;;;;;6261985;22;19958;-86
2022/12/12 14:20:17;;;;;;;;;;;;;;;;;;6263737;22;19993;-86
2022/12/12 14:22:44;;;;;;;;;;;;;;;;;;6260788;22;19915;-86
2022/12/12 14:25:11;;;;;;;;;;;;;;;;;;6312532;22;19918;-86
2022/12/12 14:27:38;;;;;;;;;;;;;;;;;;6299339;22;20306;-86
2022/12/12 14:30:17;;;;;;;;;;;;;;;;;;6330876;22;20212;-86
2022/12/12 14:36:08;;;;;;;;;;;;;;;;;;6199810;23;19977;-86
2022/12/12 14:39:27;;;;;;;;;;;;;;;;;;;;;
2022/12/12 14:44:53;;;;;;;;;;;;;;;;;;6128481;23;19916;-86
2022/12/12 14:50:47;;;;;;;;;;;;;;;;;;6042183;23;19921;-86
2022/12/12 14:53:22;;;;;;;;;;;;;;;;;;6088824;23;19917;-86
2022/12/12 14:59:18;;;;;;;;;;;;;;;;;;;;;
2022/12/12 15:05:08;;;;;;;;;;;;;;;;;;6062278;23;20774;-87
2022/12/12 15:42:32;;;;;;;;;;;;;;;;;;6061506;23;20002;-86
2022/12/12 15:48:39;;;;;;;;;;;;;;;;;;;;;
2022/12/12 15:51:18;;;;;;;;;;;;;;;;;;6058305;23;19953;-86
2022/12/12 15:57:14;;;;;;;;;;;;;;;;;;6139699;23;19956;-86
2022/12/12 16:00:25;;;;;;;;;;;;;;;;;;;;;
2022/12/12 16:03:17;;;;;;;;;;;;;;;;;;6081550;23;19921;-86
2022/12/12 16:12:28;;;;;;;;;;;;;;;;;;;;;
2022/12/12 16:15:30;;;;;;;;;;;;;;;;;;;;;
2022/12/12 16:24:49;;;;;;;;;;;;;;;;;;;;;
2022/12/12 16:27:51;;;;;;;;;;;;;;;;;;5970290;23;19934;-86
2022/12/12 16:30:51;;;;;;;;;;;;;;;;;;;;;
2022/12/12 16:33:35;;;;;;;;;;;;;;;;;;6134772;23;19924;-86
2022/12/12 16:36:34;;;;;;;;;;;;;;;;;;6141539;23;19960;-86
2022/12/12 16:52:30;;;;;;;;;;;;;;;;;;;;;
2022/12/12 17:05:19;;;;;;;;;;;;;;;;;;;;;
2022/12/12 17:08:14;;;;;;;;;;;;;;;;;;;;;
2022/12/12 17:20:41;;;;;;;;;;;;;;;;;;;;;
2022/12/12 17:29:30;;;;;;;;;;;;;;;;;;6290439;22;20347;-86
2022/12/12 17:32:01;;;;;;;;;;;;;;;;;;6274958;22;19941;-86
2022/12/12 17:34:34;;;;;;;;;;;;;;;;;;6293574;22;19952;-86
2022/12/12 17:37:18;;;;;;;;;;;;;;;;;;6274290;22;19997;-86
2022/12/12 17:43:01;;;;;;;;;;;;;;;;;;;;;
2022/12/12 17:45:42;;;;;;;;;;;;;;;;;;6322138;22;19923;-86
2022/12/12 17:48:14;;;;;;;;;;;;;;;;;;6275172;22;19915;-86
2022/12/12 17:50:49;;;;;;;;;;;;;;;;;;6273046;22;19989;-86
2022/12/12 17:53:18;;;;;;;;;;;;;;;;;;6274342;22;19914;-86
2022/12/12 17:56:00;;;;;;;;;;;;;;;;;;6336476;22;19938;-86
2022/12/12 17:58:51;;;;;;;;;;;;;;;;;;;;;
2022/12/12 18:01:19;;;;;;;;;;;;;;;;;;6322154;22;19918;-86
2022/12/12 18:04:02;;;;;;;;;;;;;;;;;;6301251;22;20001;-86
2022/12/12 18:06:38;;;;;;;;;;;;;;;;;;6302191;22;19922;-86
2022/12/12 18:09:15;;;;;;;;;;;;;;;;;;6273873;22;19968;-86
2022/12/12 18:11:52;;;;;;;;;;;;;;;;;;6296459;22;19918;-86
2022/12/12 18:17:11;;;;;;;;;;;;;;;;;;6233314;23;19919;-86
2022/12/12 18:19:39;;;;;;;;;;;;;;;;;;6180097;23;20046;-86
2022/12/12 18:22:09;;;;;;;;;;;;;;;;;;6205963;23;19990;-86
2022/12/12 18:24:48;;;;;;;;;;;;;;;;;;;;;
2022/12/12 18:27:32;;;;;;;;;;;;;;;;;;6207252;23;19923;-86
2022/12/12 18:29:58;;;;;;;;;;;;;;;;;;6203020;23;19923;-86
2022/12/12 18:32:27;;;;;;;;;;;;;;;;;;6198425;23;19923;-86
2022/12/12 18:34:58;;;;;;;;;;;;;;;;;;6215032;23;20290;-86
2022/12/12 18:37:37;;;;;;;;;;;;;;;;;;;;;
2022/12/12 18:40:08;;;;;;;;;;;;;;;;;;6205243;23;19916;-86
2022/12/12 18:42:47;;;;;;;;;;;;;;;;;;;;;
2022/12/12 18:45:31;;;;;;;;;;;;;;;;;;6199634;23;19970;-86
2022/12/12 18:48:09;;;;;;;;;;;;;;;;;;6255993;22;19918;-86
2022/12/12 18:51:02;;;;;;;;;;;;;;;;;;6291915;22;19945;-86
2022/12/12 18:56:20;;;;;;;;;;;;;;;;;;6224402;22;19927;-86
2022/12/12 19:52:27;;;;;;;;;;;;;;;;;;;;;
2022/12/12 20:07:41;;;;;;;;;;;;;;;;;;;;;
2022/12/12 20:22:52;;;;;;;;;;;;;;;;;;5909246;24;20356;-85
2022/12/12 20:25:18;;;;;;;;;;;;;;;;;;6068707;22;19922;-85
2022/12/12 20:27:44;;;;;;;;;;;;;;;;;;6226378;22;20386;-85
2022/12/12 20:30:11;;;;;;;;;;;;;;;;;;6204858;22;19955;-86
2022/12/12 20:32:37;;;;;;;;;;;;;;;;;;6203632;22;19994;-85
2022/12/12 20:35:03;;;;;;;;;;;;;;;;;;6232223;22;20013;-86
2022/12/12 20:37:29;;;;;;;;;;;;;;;;;;6229260;22;19945;-86
2022/12/12 20:39:55;;;;;;;;;;;;;;;;;;6202588;22;19919;-85
2022/12/12 20:42:21;;;;;;;;;;;;;;;;;;6317521;22;19918;-85
2022/12/12 20:44:47;;;;;;;;;;;;;;;;;;6323618;22;19922;-85
2022/12/12 20:47:16;;;;;;;;;;;;;;;;;;6301154;22;19993;-85
2022/12/12 20:49:42;;;;;;;;;;;;;;;;;;6297311;22;20016;-85